Time;durP1;ratioP1;P1;durP2;ratioP2;P2;SDS_P1;SDS_P2;PMS_P1;PMS_P2;Temp;Humidity;BMP_temperature;BMP_pressure;BME280_temperature;BME280_humidity;BME280_pressure;Samples;Min_cycle;Max_cycle;Signal;HPM_P1;HPM_P2
2022/04/22 00:01:14;;;;;;;7.67;4.50;;;;;;;;;;1765736;80;21040;-73
2022/04/22 00:03:42;;;;;;;10.35;5.90;;;;;;;;;;1783760;80;21532;-74
2022/04/22 00:06:09;;;;;;;11.60;6.28;;;;;;;;;;1784349;80;21008;-72
2022/04/22 00:08:36;;;;;;;10.18;6.20;;;;;;;;;;1783907;80;21507;-72
2022/04/22 00:13:49;;;;;;;11.93;6.67;;;;;;;;;;1784180;80;21317;-72
2022/04/22 00:16:17;;;;;;;10.18;6.10;;;;;;;;;;1783749;80;20981;-72
2022/04/22 00:18:44;;;;;;;11.65;6.10;;;;;;;;;;1783384;80;20992;-73
2022/04/22 00:21:10;;;;;;;11.10;6.78;;;;;;;;;;1784597;80;21535;-73
2022/04/22 00:23:36;;;;;;;10.53;6.45;;;;;;;;;;1784381;80;20973;-73
2022/04/22 00:26:03;;;;;;;9.78;5.65;;;;;;;;;;1784650;80;21410;-73
2022/04/22 00:28:30;;;;;;;10.32;5.58;;;;;;;;;;1772916;80;21040;-73
2022/04/22 00:30:58;;;;;;;9.08;4.72;;;;;;;;;;1753465;82;21047;-73
2022/04/22 00:33:25;;;;;;;9.58;5.35;;;;;;;;;;1753252;81;21646;-73
2022/04/22 00:35:52;;;;;;;9.50;5.55;;;;;;;;;;1753692;82;21492;-73
2022/04/22 00:38:20;;;;;;;11.95;6.05;;;;;;;;;;1753912;80;21067;-73
2022/04/22 00:40:46;;;;;;;10.70;5.75;;;;;;;;;;1753536;82;21016;-73
2022/04/22 00:43:19;;;;;;;9.20;5.70;;;;;;;;;;1753134;81;21127;-73
2022/04/22 00:45:45;;;;;;;8.80;4.78;;;;;;;;;;1753085;81;21064;-73
2022/04/22 00:48:11;;;;;;;10.23;5.25;;;;;;;;;;1780581;80;21009;-73
2022/04/22 00:50:40;;;;;;;8.70;5.10;;;;;;;;;;1784103;80;20984;-73
2022/04/22 00:53:06;;;;;;;8.25;4.97;;;;;;;;;;1782902;80;20937;-72
2022/04/22 00:55:34;;;;;;;7.65;4.53;;;;;;;;;;1783738;80;21095;-72
2022/04/22 00:58:00;;;;;;;6.72;4.55;;;;;;;;;;1784282;79;21044;-73
2022/04/22 01:03:15;;;;;;;6.50;4.10;;;;;;;;;;1739701;79;73633;-72
2022/04/22 01:11:13;;;;;;;8.35;5.15;;;;;;;;;;1769372;81;21088;-72
2022/04/22 01:13:40;;;;;;;7.30;4.30;;;;;;;;;;1712734;81;21012;-73
2022/04/22 01:16:06;;;;;;;6.55;4.25;;;;;;;;;;1713393;82;21320;-73
2022/04/22 01:18:34;;;;;;;7.95;4.33;;;;;;;;;;1727203;83;21505;-73
2022/04/22 01:23:11;;;;;;;8.53;4.50;;;;;;;;;;1819836;79;23554;-72
2022/04/22 01:25:38;;;;;;;7.37;4.65;;;;;;;;;;1793072;80;22131;-73
2022/04/22 01:28:07;;;;;;;8.25;5.83;;;;;;;;;;1792729;80;21040;-72
2022/04/22 01:30:33;;;;;;;9.18;5.00;;;;;;;;;;1793122;80;21027;-72
2022/04/22 01:33:01;;;;;;;9.95;5.15;;;;;;;;;;1792989;80;21047;-72
2022/04/22 01:35:27;;;;;;;10.18;5.80;;;;;;;;;;1758324;81;21044;-72
2022/04/22 01:37:53;;;;;;;6.65;4.42;;;;;;;;;;1758465;81;21067;-72
2022/04/22 01:40:19;;;;;;;6.17;3.92;;;;;;;;;;1758217;81;21001;-72
2022/04/22 01:42:45;;;;;;;9.00;5.05;;;;;;;;;;1758110;81;21041;-72
2022/04/22 01:45:13;;;;;;;7.97;4.87;;;;;;;;;;1758151;81;21001;-73
2022/04/22 01:47:39;;;;;;;9.23;5.22;;;;;;;;;;1758357;81;21005;-72
2022/04/22 01:50:06;;;;;;;8.23;4.78;;;;;;;;;;1750994;81;21029;-73
2022/04/22 01:52:34;;;;;;;9.75;5.72;;;;;;;;;;1729410;83;21083;-72
2022/04/22 01:54:59;;;;;;;7.15;4.30;;;;;;;;;;1729599;83;21056;-72
2022/04/22 01:57:25;;;;;;;8.98;4.85;;;;;;;;;;1729670;83;21552;-72
2022/04/22 01:59:51;;;;;;;9.90;5.70;;;;;;;;;;1729247;83;21242;-72
2022/04/22 02:02:18;;;;;;;8.43;4.42;;;;;;;;;;1758207;81;21040;-73
2022/04/22 02:04:44;;;;;;;8.33;4.55;;;;;;;;;;1758236;81;21224;-73
2022/04/22 02:07:10;;;;;;;6.17;3.87;;;;;;;;;;1758289;81;21235;-73
2022/04/22 02:09:38;;;;;;;8.60;5.08;;;;;;;;;;1758107;81;21105;-73
2022/04/22 02:12:04;;;;;;;8.88;5.12;;;;;;;;;;1758287;81;22201;-73
2022/04/22 02:14:30;;;;;;;8.33;4.53;;;;;;;;;;1758235;81;21056;-73
2022/04/22 02:16:57;;;;;;;6.60;4.60;;;;;;;;;;1757940;81;21072;-73
2022/04/22 02:19:25;;;;;;;7.42;4.85;;;;;;;;;;1758273;81;20991;-73
2022/04/22 02:21:51;;;;;;;8.20;4.92;;;;;;;;;;1752568;81;21015;-73
2022/04/22 02:24:19;;;;;;;9.45;5.20;;;;;;;;;;1741864;82;21671;-73
2022/04/22 02:29:32;;;;;;;6.78;4.80;;;;;;;;;;1742062;82;21069;-71
2022/04/22 02:31:59;;;;;;;9.58;5.35;;;;;;;;;;1742344;82;21001;-71
2022/04/22 02:34:25;;;;;;;8.63;5.22;;;;;;;;;;1741605;82;21548;-71
2022/04/22 02:36:51;;;;;;;10.23;5.45;;;;;;;;;;1741786;82;21005;-71
2022/04/22 02:39:18;;;;;;;7.60;4.83;;;;;;;;;;1742901;82;20970;-71
2022/04/22 02:47:15;;;;;;;11.08;6.10;;;;;;;;;;1743825;82;21054;-74
2022/04/22 02:49:44;;;;;;;8.53;5.12;;;;;;;;;;1742462;82;21061;-71
2022/04/22 02:52:12;;;;;;;8.45;5.53;;;;;;;;;;1741708;82;20997;-73
2022/04/22 02:54:39;;;;;;;8.75;5.25;;;;;;;;;;1741549;82;21010;-73
2022/04/22 02:57:06;;;;;;;11.83;7.00;;;;;;;;;;1741787;82;21028;-73
2022/04/22 02:59:32;;;;;;;8.08;4.87;;;;;;;;;;1742834;82;21058;-71
2022/04/22 03:01:57;;;;;;;9.05;6.17;;;;;;;;;;1744194;82;21003;-71
2022/04/22 03:04:25;;;;;;;10.50;6.05;;;;;;;;;;1743780;81;21568;-71
2022/04/22 03:06:58;;;;;;;8.50;5.92;;;;;;;;;;1743903;82;21473;-71
2022/04/22 03:09:22;;;;;;;11.28;7.25;;;;;;;;;;1740917;82;21342;-71
2022/04/22 03:11:50;;;;;;;7.42;4.90;;;;;;;;;;1741850;82;21021;-72
2022/04/22 03:14:19;;;;;;;10.30;5.90;;;;;;;;;;1741543;82;20997;-72
2022/04/22 03:16:45;;;;;;;10.45;6.33;;;;;;;;;;1741711;82;21076;-72
2022/04/22 03:19:11;;;;;;;9.65;6.75;;;;;;;;;;1744249;82;21034;-72
2022/04/22 03:21:39;;;;;;;8.68;5.22;;;;;;;;;;1745777;82;21112;-72
2022/04/22 03:24:07;;;;;;;10.25;6.20;;;;;;;;;;1755075;82;21576;-72
2022/04/22 03:26:34;;;;;;;9.38;5.80;;;;;;;;;;1755217;82;21075;-72
2022/04/22 03:29:00;;;;;;;8.90;5.62;;;;;;;;;;1755407;82;21087;-72
2022/04/22 03:31:28;;;;;;;8.95;5.78;;;;;;;;;;1756638;82;21048;-72
2022/04/22 03:33:54;;;;;;;9.75;5.65;;;;;;;;;;1757097;82;21041;-72
2022/04/22 03:36:20;;;;;;;10.13;6.37;;;;;;;;;;1756642;82;21411;-72
2022/04/22 03:38:46;;;;;;;11.03;6.35;;;;;;;;;;1756703;82;21028;-72
2022/04/22 03:41:12;;;;;;;10.90;6.95;;;;;;;;;;1756312;82;21076;-72
2022/04/22 03:43:39;;;;;;;9.98;6.50;;;;;;;;;;1754539;82;21096;-73
2022/04/22 03:46:06;;;;;;;14.03;8.90;;;;;;;;;;1741469;82;21103;-73
2022/04/22 03:48:32;;;;;;;11.70;9.48;;;;;;;;;;1755320;82;20993;-73
2022/04/22 03:50:58;;;;;;;12.20;7.78;;;;;;;;;;1755345;82;20990;-73
2022/04/22 03:53:24;;;;;;;12.80;6.92;;;;;;;;;;1755385;82;21009;-74
2022/04/22 03:55:51;;;;;;;8.53;5.78;;;;;;;;;;1755130;82;21543;-74
2022/04/22 03:58:17;;;;;;;10.55;6.53;;;;;;;;;;1755403;82;21033;-74
2022/04/22 04:00:48;;;;;;;10.13;6.47;;;;;;;;;;1754707;82;21144;-74
2022/04/22 04:03:23;;;;;;;13.33;8.77;;;;;;;;;;1747632;81;21068;-74
2022/04/22 04:05:51;;;;;;;9.50;6.20;;;;;;;;;;1755189;82;21537;-70
2022/04/22 04:08:19;;;;;;;9.33;7.05;;;;;;;;;;1733350;82;21045;-74
2022/04/22 04:16:18;;;;;;;9.43;5.87;;;;;;;;;;1755023;82;21100;-73
2022/04/22 04:18:44;;;;;;;9.58;6.83;;;;;;;;;;1727896;82;21020;-72
2022/04/22 04:23:59;;;;;;;11.45;6.62;;;;;;;;;;1742155;82;21018;-73
2022/04/22 04:26:28;;;;;;;13.15;7.97;;;;;;;;;;1741650;82;21049;-72
2022/04/22 04:28:56;;;;;;;10.82;7.45;;;;;;;;;;1741570;82;21128;-72
2022/04/22 04:31:25;;;;;;;9.43;6.03;;;;;;;;;;1738738;82;21028;-72
2022/04/22 04:33:52;;;;;;;12.73;6.95;;;;;;;;;;1734419;83;21656;-72
2022/04/22 04:36:19;;;;;;;9.53;6.67;;;;;;;;;;1734451;83;21034;-73
2022/04/22 04:38:45;;;;;;;11.48;7.08;;;;;;;;;;1734720;83;21002;-73
2022/04/22 04:41:13;;;;;;;13.30;7.35;;;;;;;;;;1734564;83;21588;-73
2022/04/22 04:43:40;;;;;;;10.08;6.75;;;;;;;;;;1734730;83;21057;-73
2022/04/22 04:46:10;;;;;;;10.32;6.92;;;;;;;;;;1734652;83;21326;-72
2022/04/22 04:48:36;;;;;;;12.33;6.80;;;;;;;;;;1734732;83;21040;-72
2022/04/22 04:51:06;;;;;;;10.10;6.95;;;;;;;;;;1734295;83;21088;-72
2022/04/22 04:53:33;;;;;;;10.13;6.87;;;;;;;;;;1734664;83;21002;-72
2022/04/22 04:56:02;;;;;;;12.58;7.30;;;;;;;;;;1734259;83;21054;-72
2022/04/22 04:58:28;;;;;;;10.25;7.20;;;;;;;;;;1738092;82;21082;-71
2022/04/22 05:00:56;;;;;;;10.08;5.90;;;;;;;;;;1742301;82;21156;-71
2022/04/22 05:03:22;;;;;;;11.70;6.62;;;;;;;;;;1724946;81;21112;-73
2022/04/22 05:05:51;;;;;;;10.08;7.30;;;;;;;;;;1743559;82;21006;-73
2022/04/22 05:08:19;;;;;;;11.10;7.00;;;;;;;;;;1742113;82;21104;-72
2022/04/22 05:10:46;;;;;;;10.08;7.12;;;;;;;;;;1741752;82;21064;-73
2022/04/22 05:13:13;;;;;;;11.25;7.55;;;;;;;;;;1741580;82;21069;-73
2022/04/22 05:15:43;;;;;;;11.12;7.00;;;;;;;;;;1741471;82;21073;-73
2022/04/22 05:18:10;;;;;;;10.32;6.80;;;;;;;;;;1741246;82;21078;-73
2022/04/22 05:20:36;;;;;;;12.82;8.43;;;;;;;;;;1741887;82;21590;-73
2022/04/22 05:23:05;;;;;;;12.93;7.90;;;;;;;;;;1749234;82;21073;-73
2022/04/22 05:25:31;;;;;;;13.25;8.03;;;;;;;;;;1755200;82;20973;-74
2022/04/22 05:27:59;;;;;;;9.95;6.30;;;;;;;;;;1754849;82;21041;-73
2022/04/22 05:33:10;;;;;;;11.70;7.92;;;;;;;;;;1754993;82;21067;-72
2022/04/22 05:35:37;;;;;;;14.33;8.43;;;;;;;;;;1754921;82;21025;-72
2022/04/22 05:38:04;;;;;;;12.23;7.70;;;;;;;;;;1754714;82;20961;-73
2022/04/22 05:40:33;;;;;;;13.50;8.40;;;;;;;;;;1754784;80;21358;-72
2022/04/22 05:42:59;;;;;;;13.95;8.00;;;;;;;;;;1755194;82;20997;-73
2022/04/22 05:45:26;;;;;;;11.73;7.35;;;;;;;;;;1754955;82;21032;-73
2022/04/22 05:47:52;;;;;;;12.73;7.42;;;;;;;;;;1755487;82;21035;-72
2022/04/22 05:50:20;;;;;;;11.93;7.75;;;;;;;;;;1755094;82;22129;-72
2022/04/22 05:52:46;;;;;;;15.68;8.95;;;;;;;;;;1755163;80;21228;-73
2022/04/22 05:55:16;;;;;;;12.37;8.23;;;;;;;;;;1753876;82;21544;-72
2022/04/22 05:57:42;;;;;;;11.12;7.70;;;;;;;;;;1747259;82;21035;-74
2022/04/22 06:00:10;;;;;;;11.93;7.53;;;;;;;;;;1755165;82;21028;-74
2022/04/22 06:02:42;;;;;;;15.28;9.13;;;;;;;;;;1754948;80;21092;-72
2022/04/22 06:05:10;;;;;;;13.18;8.23;;;;;;;;;;1755208;82;21014;-72
2022/04/22 06:07:38;;;;;;;13.58;8.53;;;;;;;;;;1742717;82;20983;-72
2022/04/22 06:12:51;;;;;;;12.58;8.33;;;;;;;;;;1755562;82;21050;-74
2022/04/22 06:15:19;;;;;;;12.98;8.78;;;;;;;;;;1755092;82;21046;-72
2022/04/22 06:17:46;;;;;;;15.53;9.08;;;;;;;;;;1755443;82;21178;-72
2022/04/22 06:20:14;;;;;;;13.48;9.53;;;;;;;;;;1755078;82;21106;-73
2022/04/22 06:22:41;;;;;;;14.40;9.50;;;;;;;;;;1754992;81;21098;-73
2022/04/22 06:25:09;;;;;;;13.13;9.40;;;;;;;;;;1753160;82;21021;-73
2022/04/22 06:27:40;;;;;;;13.18;8.58;;;;;;;;;;1755233;82;21032;-73
2022/04/22 06:30:14;;;;;;;12.78;8.80;;;;;;;;;;1755403;82;21313;-73
2022/04/22 06:32:42;;;;;;;12.23;8.20;;;;;;;;;;1755315;82;21004;-73
2022/04/22 06:35:11;;;;;;;15.35;9.58;;;;;;;;;;1755315;82;21520;-73
2022/04/22 06:37:40;;;;;;;13.15;8.25;;;;;;;;;;1755402;82;21044;-73
2022/04/22 06:45:48;;;;;;;14.45;9.28;;;;;;;;;;1755153;82;21008;-72
2022/04/22 06:48:21;;;;;;;15.03;9.18;;;;;;;;;;1754984;82;21083;-71
2022/04/22 06:50:49;;;;;;;16.42;9.43;;;;;;;;;;1755102;82;21546;-72
2022/04/22 06:53:16;;;;;;;15.98;9.43;;;;;;;;;;1755242;82;20988;-71
2022/04/22 06:55:44;;;;;;;16.00;9.28;;;;;;;;;;1755093;82;21045;-71
2022/04/22 06:58:12;;;;;;;14.18;8.65;;;;;;;;;;1755244;82;20977;-71
2022/04/22 07:00:42;;;;;;;16.07;10.78;;;;;;;;;;1755321;81;21097;-72
2022/04/22 07:03:08;;;;;;;15.83;9.50;;;;;;;;;;1755379;81;21537;-72
2022/04/22 07:05:36;;;;;;;13.75;8.68;;;;;;;;;;1754482;81;21082;-72
2022/04/22 07:08:06;;;;;;;12.75;8.33;;;;;;;;;;1722475;83;21128;-72
2022/04/22 07:10:34;;;;;;;17.62;11.08;;;;;;;;;;1719506;83;21025;-72
2022/04/22 07:13:00;;;;;;;16.25;9.70;;;;;;;;;;1748676;82;21001;-72
2022/04/22 07:15:26;;;;;;;14.90;10.65;;;;;;;;;;1755224;82;21045;-73
2022/04/22 07:17:52;;;;;;;15.40;9.33;;;;;;;;;;1755468;82;21104;-74
2022/04/22 07:20:20;;;;;;;15.45;9.03;;;;;;;;;;1755133;82;21029;-73
2022/04/22 07:22:46;;;;;;;15.85;10.93;;;;;;;;;;1753066;82;21674;-73
2022/04/22 07:25:12;;;;;;;17.75;10.63;;;;;;;;;;1741938;82;21054;-73
2022/04/22 07:27:40;;;;;;;16.37;10.38;;;;;;;;;;1741616;82;21065;-73
2022/04/22 07:30:08;;;;;;;16.05;10.28;;;;;;;;;;1741901;82;21061;-73
2022/04/22 07:32:41;;;;;;;11.65;7.67;;;;;;;;;;1743756;82;21504;-73
2022/04/22 07:35:12;;;;;;;14.15;8.55;;;;;;;;;;1744123;82;21097;-73
2022/04/22 07:37:39;;;;;;;15.43;10.48;;;;;;;;;;1744011;82;21038;-73
2022/04/22 07:40:07;;;;;;;14.73;10.08;;;;;;;;;;1741412;82;21013;-73
2022/04/22 07:42:34;;;;;;;16.52;8.80;;;;;;;;;;1742004;82;21054;-73
2022/04/22 07:47:48;;;;;;;15.83;10.95;;;;;;;;;;1712152;83;21076;-73
2022/04/22 07:50:14;;;;;;;16.57;10.60;;;;;;;;;;1717895;82;21045;-72
2022/04/22 07:52:44;;;;;;;16.90;9.35;;;;;;;;;;1741518;82;21318;-73
2022/04/22 07:55:10;;;;;;;17.02;10.35;;;;;;;;;;1742416;82;21609;-73
2022/04/22 07:57:40;;;;;;;14.65;10.08;;;;;;;;;;1742294;82;21041;-73
2022/04/22 08:00:06;;;;;;;16.37;9.35;;;;;;;;;;1741825;82;21019;-73
2022/04/22 08:02:40;;;;;;;16.67;11.78;;;;;;;;;;1741213;81;21113;-73
2022/04/22 08:05:05;;;;;;;16.07;9.48;;;;;;;;;;1741272;82;21025;-73
2022/04/22 08:07:32;;;;;;;13.68;8.93;;;;;;;;;;1739524;82;21592;-73
2022/04/22 08:09:58;;;;;;;18.15;10.40;;;;;;;;;;1741635;82;21057;-72
2022/04/22 08:12:26;;;;;;;18.67;9.88;;;;;;;;;;1743049;82;21026;-72
2022/04/22 08:14:52;;;;;;;15.50;9.55;;;;;;;;;;1741762;82;21089;-72
2022/04/22 08:17:21;;;;;;;17.50;12.20;;;;;;;;;;1741283;82;21120;-72
2022/04/22 08:19:49;;;;;;;16.48;9.40;;;;;;;;;;1743194;82;21056;-72
2022/04/22 08:22:15;;;;;;;17.52;10.13;;;;;;;;;;1742632;82;20997;-73
2022/04/22 08:24:43;;;;;;;15.10;10.30;;;;;;;;;;1747987;82;21081;-73
2022/04/22 08:27:10;;;;;;;18.77;10.98;;;;;;;;;;1749610;82;21060;-73
2022/04/22 08:29:37;;;;;;;13.50;8.98;;;;;;;;;;1749457;82;21560;-73
2022/04/22 08:32:04;;;;;;;16.27;10.72;;;;;;;;;;1749659;82;21021;-73
2022/04/22 08:34:31;;;;;;;16.17;11.25;;;;;;;;;;1749428;82;21028;-73
2022/04/22 08:36:57;;;;;;;17.32;12.30;;;;;;;;;;1749547;81;21027;-72
2022/04/22 08:39:26;;;;;;;15.98;9.70;;;;;;;;;;1749257;82;21566;-72
2022/04/22 08:41:53;;;;;;;16.42;10.20;;;;;;;;;;1749088;82;21024;-72
2022/04/22 08:44:19;;;;;;;17.82;9.83;;;;;;;;;;1749480;82;21105;-72
2022/04/22 08:50:32;;;;;;;16.90;10.18;;;;;;;;;;1749475;82;21022;-72
2022/04/22 08:52:11;;;;;;;15.38;8.83;;;;;;;;;;1727307;82;21067;-72
2022/04/22 08:54:43;;;;;;;17.37;9.90;;;;;;;;;;1749460;82;21066;-72
2022/04/22 08:57:09;;;;;;;16.37;10.55;;;;;;;;;;1749840;82;21055;-73
2022/04/22 08:59:36;;;;;;;16.07;11.18;;;;;;;;;;1749812;82;20987;-71
2022/04/22 09:02:03;;;;;;;16.80;10.43;;;;;;;;;;1749501;80;21479;-72
2022/04/22 09:04:29;;;;;;;15.90;9.60;;;;;;;;;;1749802;82;20967;-71
2022/04/22 09:06:57;;;;;;;15.32;9.43;;;;;;;;;;1749343;82;21584;-73
2022/04/22 09:09:24;;;;;;;15.28;9.90;;;;;;;;;;1749831;82;21026;-71
2022/04/22 09:11:51;;;;;;;17.48;10.23;;;;;;;;;;1749078;82;21037;-72
2022/04/22 09:14:20;;;;;;;17.95;11.03;;;;;;;;;;1749338;82;21052;-72
2022/04/22 09:16:49;;;;;;;18.00;10.85;;;;;;;;;;1749292;82;21093;-72
2022/04/22 09:19:19;;;;;;;16.42;11.30;;;;;;;;;;1749402;82;21073;-72
2022/04/22 09:21:57;;;;;;;16.10;9.45;;;;;;;;;;1749484;82;21145;-73
2022/04/22 09:24:24;;;;;;;16.55;9.90;;;;;;;;;;1752452;82;21038;-71
2022/04/22 09:27:02;;;;;;;17.07;9.88;;;;;;;;;;1755057;82;21009;-72
2022/04/22 09:29:32;;;;;;;15.43;8.03;;;;;;;;;;1754790;82;21164;-72
2022/04/22 09:31:58;;;;;;;17.20;9.10;;;;;;;;;;1755159;82;21026;-72
2022/04/22 09:34:33;;;;;;;20.10;9.90;;;;;;;;;;1755180;82;21018;-72
2022/04/22 09:42:52;;;;;;;16.40;10.25;;;;;;;;;;1725545;82;21004;-72
2022/04/22 09:45:18;;;;;;;18.80;10.30;;;;;;;;;;1751780;82;21077;-72
2022/04/22 09:47:46;;;;;;;17.17;9.95;;;;;;;;;;1726106;82;20993;-72
2022/04/22 09:50:16;;;;;;;16.15;10.03;;;;;;;;;;1726915;82;21107;-72
2022/04/22 09:52:46;;;;;;;17.52;11.25;;;;;;;;;;1755171;82;21079;-73
2022/04/22 09:55:16;;;;;;;18.23;10.82;;;;;;;;;;1752049;82;21080;-73
2022/04/22 09:57:49;;;;;;;18.40;10.13;;;;;;;;;;1749310;82;21100;-73
2022/04/22 10:00:15;;;;;;;17.20;11.60;;;;;;;;;;1755184;82;21099;-73
2022/04/22 10:02:43;;;;;;;17.48;9.73;;;;;;;;;;1753843;80;21189;-74
2022/04/22 10:05:10;;;;;;;16.82;9.85;;;;;;;;;;1755255;82;21056;-73
2022/04/22 10:07:36;;;;;;;20.60;12.28;;;;;;;;;;1754843;82;21489;-73
2022/04/22 10:10:05;;;;;;;17.32;10.82;;;;;;;;;;1753073;81;21051;-73
2022/04/22 10:12:31;;;;;;;17.92;9.75;;;;;;;;;;1755382;82;21045;-73
2022/04/22 10:14:57;;;;;;;16.95;10.28;;;;;;;;;;1755424;82;21513;-73
2022/04/22 10:17:25;;;;;;;19.82;11.55;;;;;;;;;;1753745;82;21079;-73
2022/04/22 10:19:53;;;;;;;18.55;10.28;;;;;;;;;;1755258;82;21092;-71
2022/04/22 10:22:20;;;;;;;17.10;10.13;;;;;;;;;;1755314;82;21065;-71
2022/04/22 10:24:49;;;;;;;16.30;10.00;;;;;;;;;;1745573;82;20990;-72
2022/04/22 10:27:15;;;;;;;16.35;10.58;;;;;;;;;;1741804;82;21055;-71
2022/04/22 10:29:43;;;;;;;14.35;8.65;;;;;;;;;;1741447;82;21043;-72
2022/04/22 10:32:09;;;;;;;16.87;12.18;;;;;;;;;;1741875;82;21006;-72
2022/04/22 10:34:41;;;;;;;19.12;11.48;;;;;;;;;;1741664;82;21033;-72
2022/04/22 10:37:18;;;;;;;22.00;10.60;;;;;;;;;;1741841;82;21087;-72
2022/04/22 10:39:46;;;;;;;15.83;9.98;;;;;;;;;;1741393;82;21038;-72
2022/04/22 10:42:15;;;;;;;15.55;10.20;;;;;;;;;;1705931;84;21075;-71
2022/04/22 10:47:36;;;;;;;15.88;9.03;;;;;;;;;;1714508;84;21068;-72
2022/04/22 10:50:05;;;;;;;17.70;10.25;;;;;;;;;;1727410;82;21057;-73
2022/04/22 10:52:31;;;;;;;16.80;11.60;;;;;;;;;;1738698;82;21043;-72
2022/04/22 10:55:00;;;;;;;18.02;11.15;;;;;;;;;;1741774;82;22148;-73
2022/04/22 10:57:31;;;;;;;17.02;10.38;;;;;;;;;;1741430;82;21179;-72
2022/04/22 11:00:11;;;;;;;16.32;10.90;;;;;;;;;;1741664;82;21054;-73
2022/04/22 11:02:41;;;;;;;15.93;9.63;;;;;;;;;;1733678;81;21112;-72
2022/04/22 11:07:56;;;;;;;15.45;9.63;;;;;;;;;;1738860;82;21050;-74
2022/04/22 11:10:23;;;;;;;14.73;9.80;;;;;;;;;;1741566;82;21621;-73
2022/04/22 11:12:51;;;;;;;18.17;10.90;;;;;;;;;;1737068;82;21019;-73
2022/04/22 11:15:36;;;;;;;12.73;8.45;;;;;;;;;;1742397;82;21022;-73
2022/04/22 11:18:02;;;;;;;12.95;9.18;;;;;;;;;;1741532;82;21061;-73
2022/04/22 11:20:28;;;;;;;16.85;10.90;;;;;;;;;;1741542;82;21038;-73
2022/04/22 11:22:56;;;;;;;15.75;10.20;;;;;;;;;;1741367;82;21084;-73
2022/04/22 11:25:24;;;;;;;15.60;9.75;;;;;;;;;;1741660;82;21057;-73
2022/04/22 11:27:50;;;;;;;17.12;11.08;;;;;;;;;;1742964;82;20970;-73
2022/04/22 11:30:18;;;;;;;16.00;10.53;;;;;;;;;;1743610;82;21038;-73
2022/04/22 11:32:48;;;;;;;17.80;10.90;;;;;;;;;;1712005;84;21080;-74
2022/04/22 11:35:17;;;;;;;15.30;9.83;;;;;;;;;;1722992;82;21061;-74
2022/04/22 11:37:43;;;;;;;15.88;9.93;;;;;;;;;;1738577;82;21092;-74
2022/04/22 11:40:10;;;;;;;14.40;11.05;;;;;;;;;;1741696;81;21049;-73
2022/04/22 11:42:43;;;;;;;15.88;10.88;;;;;;;;;;1713196;82;21048;-73
2022/04/22 11:45:11;;;;;;;15.65;10.72;;;;;;;;;;1710686;82;21060;-73
2022/04/22 11:47:35;;;;;;;11.73;8.20;;;;;;;;;;1729900;82;20998;-73
2022/04/22 11:50:01;;;;;;;16.25;11.38;;;;;;;;;;1742535;82;21561;-72
2022/04/22 11:52:29;;;;;;;15.18;9.63;;;;;;;;;;1743612;82;21069;-73
2022/04/22 11:55:02;;;;;;;17.12;11.78;;;;;;;;;;1744107;82;21018;-73
2022/04/22 11:57:29;;;;;;;;;;;;;;;;;;1746911;82;21030;-74
2022/04/22 12:05:37;;;;;;;18.40;10.08;;;;;;;;;;1712007;83;21652;-73
2022/04/22 12:08:08;;;;;;;15.03;9.43;;;;;;;;;;1718549;82;21038;-73
2022/04/22 12:10:35;;;;;;;17.90;9.68;;;;;;;;;;1742061;81;21113;-73
2022/04/22 12:13:02;;;;;;;13.03;9.40;;;;;;;;;;1743979;81;21089;-73
2022/04/22 12:15:28;;;;;;;15.13;10.72;;;;;;;;;;1741863;82;21066;-72
2022/04/22 12:17:56;;;;;;;13.70;10.08;;;;;;;;;;1741894;81;21081;-73
2022/04/22 12:20:22;;;;;;;14.58;8.88;;;;;;;;;;1741709;82;21336;-73
2022/04/22 12:22:49;;;;;;;13.05;8.78;;;;;;;;;;1741575;82;21089;-72
2022/04/22 12:25:16;;;;;;;12.95;8.68;;;;;;;;;;1742564;82;21517;-73
2022/04/22 12:27:44;;;;;;;13.62;9.78;;;;;;;;;;1742470;82;21054;-73
2022/04/22 12:30:12;;;;;;;12.30;9.38;;;;;;;;;;1716667;82;21022;-73
2022/04/22 12:32:39;;;;;;;12.55;8.88;;;;;;;;;;1743636;82;21025;-73
2022/04/22 12:35:12;;;;;;;14.07;8.80;;;;;;;;;;1743295;82;21017;-74
2022/04/22 12:37:51;;;;;;;13.05;10.08;;;;;;;;;;1744855;82;20994;-73
2022/04/22 12:40:22;;;;;;;14.40;8.80;;;;;;;;;;1712561;84;21061;-72
2022/04/22 12:42:49;;;;;;;13.75;8.83;;;;;;;;;;1712016;84;21135;-72
2022/04/22 12:53:44;;;;;;;12.80;9.10;;;;;;;;;;1711896;83;21620;-72
2022/04/22 12:56:11;;;;;;;14.40;10.50;;;;;;;;;;1692971;82;21552;-72
2022/04/22 12:58:52;;;;;;;11.75;8.30;;;;;;;;;;1743523;82;21016;-72
2022/04/22 13:01:21;;;;;;;13.10;9.03;;;;;;;;;;1743769;82;21355;-73
2022/04/22 13:03:49;;;;;;;14.35;8.58;;;;;;;;;;1741953;81;21594;-71
2022/04/22 13:06:34;;;;;;;12.43;9.25;;;;;;;;;;1741638;82;21011;-72
2022/04/22 13:09:00;;;;;;;13.38;9.20;;;;;;;;;;1742244;82;21030;-73
2022/04/22 13:11:27;;;;;;;13.13;9.88;;;;;;;;;;1741424;82;21053;-72
2022/04/22 13:13:54;;;;;;;12.82;8.85;;;;;;;;;;1712233;83;21041;-72
2022/04/22 13:16:20;;;;;;;12.65;8.78;;;;;;;;;;1712324;84;21577;-73
2022/04/22 13:18:49;;;;;;;13.05;9.00;;;;;;;;;;1737273;82;21693;-73
2022/04/22 13:21:14;;;;;;;12.53;8.00;;;;;;;;;;1745003;82;21041;-74
2022/04/22 13:23:41;;;;;;;13.40;9.03;;;;;;;;;;1743180;81;21561;-74
2022/04/22 13:26:08;;;;;;;12.58;9.18;;;;;;;;;;1752617;82;21146;-74
2022/04/22 13:28:35;;;;;;;12.28;8.93;;;;;;;;;;1755160;82;20997;-74
2022/04/22 13:31:02;;;;;;;12.43;7.95;;;;;;;;;;1727662;82;21076;-75
2022/04/22 13:33:32;;;;;;;13.00;9.10;;;;;;;;;;1755006;82;21024;-74
2022/04/22 13:36:09;;;;;;;14.10;8.73;;;;;;;;;;1755261;82;21059;-74
2022/04/22 13:39:55;;;;;;;12.40;8.58;;;;;;;;;;1797813;78;24008;-74
2022/04/22 13:42:21;;;;;;;11.10;9.35;;;;;;;;;;1759940;81;21024;-76
2022/04/22 13:53:06;;;;;;;11.00;8.68;;;;;;;;;;1760852;81;21017;-73
2022/04/22 13:55:34;;;;;;;13.18;9.05;;;;;;;;;;1758190;81;21084;-73
2022/04/22 13:58:00;;;;;;;11.57;7.70;;;;;;;;;;1756748;81;21040;-73
2022/04/22 14:00:27;;;;;;;11.10;8.40;;;;;;;;;;1757302;81;21588;-73
2022/04/22 14:02:56;;;;;;;11.88;8.13;;;;;;;;;;1737992;81;21112;-73
2022/04/22 14:05:22;;;;;;;11.60;9.53;;;;;;;;;;1725922;83;21563;-73
2022/04/22 14:07:50;;;;;;;10.60;8.25;;;;;;;;;;1725646;83;21033;-74
2022/04/22 14:10:16;;;;;;;10.70;8.83;;;;;;;;;;1724315;83;20988;-74
2022/04/22 14:12:43;;;;;;;11.20;8.35;;;;;;;;;;1678677;85;21130;-72
2022/04/22 14:15:11;;;;;;;11.68;8.60;;;;;;;;;;1677302;85;21096;-73
2022/04/22 14:17:41;;;;;;;10.23;7.00;;;;;;;;;;1670450;85;21050;-73
2022/04/22 14:20:08;;;;;;;12.90;9.48;;;;;;;;;;1640926;86;21587;-73
2022/04/22 14:22:35;;;;;;;13.60;8.65;;;;;;;;;;1657333;87;21133;-73
2022/04/22 14:25:05;;;;;;;10.98;8.05;;;;;;;;;;1673926;85;21134;-73
2022/04/22 14:27:32;;;;;;;11.53;8.40;;;;;;;;;;1684240;85;21047;-74
2022/04/22 14:29:58;;;;;;;10.23;7.70;;;;;;;;;;1684090;85;21488;-75
2022/04/22 14:32:25;;;;;;;12.80;8.40;;;;;;;;;;1684074;85;21071;-73
2022/04/22 14:34:52;;;;;;;13.80;8.53;;;;;;;;;;1684333;85;21072;-72
2022/04/22 14:37:19;;;;;;;10.60;8.93;;;;;;;;;;1684100;85;21039;-73
2022/04/22 14:39:47;;;;;;;10.80;7.55;;;;;;;;;;1673559;85;21091;-72
2022/04/22 14:42:13;;;;;;;11.05;7.25;;;;;;;;;;1664355;86;21020;-73
2022/04/22 14:44:41;;;;;;;12.45;7.92;;;;;;;;;;1664562;86;21064;-72
2022/04/22 14:47:10;;;;;;;12.23;8.93;;;;;;;;;;1664249;86;21056;-73
2022/04/22 14:49:39;;;;;;;12.78;8.05;;;;;;;;;;1663842;86;21561;-73
2022/04/22 14:52:06;;;;;;;10.93;7.58;;;;;;;;;;1670362;85;21012;-73
2022/04/22 14:54:32;;;;;;;10.90;8.00;;;;;;;;;;1707735;83;21002;-73
2022/04/22 14:56:58;;;;;;;10.60;8.73;;;;;;;;;;1696150;84;21034;-73
2022/04/22 14:59:26;;;;;;;12.82;7.83;;;;;;;;;;1691846;84;21607;-74
2022/04/22 15:01:55;;;;;;;10.75;7.60;;;;;;;;;;1712372;84;21077;-74
2022/04/22 15:04:24;;;;;;;9.65;7.85;;;;;;;;;;1712605;84;21127;-73
2022/04/22 15:06:50;;;;;;;11.80;7.37;;;;;;;;;;1712459;84;21120;-73
2022/04/22 15:09:19;;;;;;;12.15;7.92;;;;;;;;;;1707275;84;21520;-74
2022/04/22 15:11:48;;;;;;;10.23;7.85;;;;;;;;;;1664075;86;21074;-74
2022/04/22 15:14:14;;;;;;;11.15;8.33;;;;;;;;;;1707296;84;21045;-74
2022/04/22 15:16:40;;;;;;;10.98;8.25;;;;;;;;;;1707225;84;21021;-74
2022/04/22 15:24:37;;;;;;;10.85;8.78;;;;;;;;;;1663893;86;21063;-74
2022/04/22 15:27:06;;;;;;;12.40;7.60;;;;;;;;;;1663514;85;21658;-75
2022/04/22 15:29:37;;;;;;;10.68;7.50;;;;;;;;;;1651395;86;21130;-73
2022/04/22 15:32:06;;;;;;;12.03;8.83;;;;;;;;;;1707131;84;21116;-75
2022/04/22 15:34:32;;;;;;;10.08;7.75;;;;;;;;;;1663941;86;20984;-74
2022/04/22 15:36:59;;;;;;;11.65;8.40;;;;;;;;;;1673325;85;21073;-76
2022/04/22 15:39:25;;;;;;;11.38;8.00;;;;;;;;;;1692179;83;21076;-74
2022/04/22 15:41:53;;;;;;;13.50;8.18;;;;;;;;;;1716121;83;21537;-74
2022/04/22 15:44:27;;;;;;;12.80;8.95;;;;;;;;;;1722955;82;21001;-74
2022/04/22 15:46:54;;;;;;;13.15;9.30;;;;;;;;;;1717869;82;22229;-72
2022/04/22 15:49:20;;;;;;;12.73;9.03;;;;;;;;;;1714556;83;21009;-73
2022/04/22 15:51:46;;;;;;;12.10;8.20;;;;;;;;;;1717608;83;21079;-74
2022/04/22 15:54:14;;;;;;;13.65;9.80;;;;;;;;;;1722652;82;22214;-74
2022/04/22 15:56:42;;;;;;;12.23;8.68;;;;;;;;;;1736733;82;21072;-74
2022/04/22 15:59:09;;;;;;;14.98;10.20;;;;;;;;;;1720743;82;21279;-74
2022/04/22 16:01:37;;;;;;;14.98;9.28;;;;;;;;;;1717534;82;21084;-74